Terminal Aerodrome Forecast
Issued by NWS

Home | Current Version | Previous Version | Text Only | Print | Product List | Glossary On
Versions: 1 2 3 4 5 6 7 8 9 10 11 12 13 14 15 16 17 18 19
580
FTUS41 KPBZ 240520
TAFMGW
TAF
KMGW 240520Z 2406/2506 22005KT P6SM -RA SCT006 BKN050
     FM240800 27006KT 3SM BR VCSH BKN015
     FM241100 28007KT P6SM BKN025
     FM241600 28008G16KT P6SM SCT200
     FM250100 27004KT P6SM SCT250=

USA.gov is the U.S. government's official web portal to all federal, state and local government web resources and services.